createdAt,value
2019-02-05T00:02:21.389Z,8.97
2019-02-05T00:04:53.385Z,9.10
2019-02-05T00:07:25.356Z,9.60
2019-02-05T00:09:57.308Z,10.00
2019-02-05T00:12:28.979Z,8.93
2019-02-05T00:15:00.664Z,9.70
2019-02-05T00:17:32.322Z,9.90
2019-02-05T00:20:04.371Z,9.67
2019-02-05T00:22:36.037Z,9.47
2019-02-05T00:25:08.168Z,9.77
2019-02-05T00:27:39.838Z,9.77
2019-02-05T00:30:16.626Z,9.13
2019-02-05T00:32:48.946Z,9.13
2019-02-05T00:35:20.608Z,9.63
2019-02-05T00:37:52.301Z,9.30
2019-02-05T00:40:24.132Z,9.40
2019-02-05T00:42:55.828Z,9.47
2019-02-05T00:45:28.156Z,9.70
2019-02-05T00:47:59.852Z,10.20
2019-02-05T00:50:31.527Z,8.93
2019-02-05T00:53:03.467Z,10.13
2019-02-05T00:55:35.143Z,9.47
2019-02-05T00:58:06.820Z,8.93
2019-02-05T01:00:38.489Z,10.17
2019-02-05T01:03:10.173Z,9.03
2019-02-05T01:05:41.852Z,9.40
2019-02-05T01:08:13.511Z,9.27
2019-02-05T01:10:45.524Z,10.27
2019-02-05T01:13:17.211Z,9.00
2019-02-05T01:15:48.873Z,9.97
2019-02-05T01:18:20.551Z,10.27
2019-02-05T01:20:52.229Z,10.90
2019-02-05T01:23:23.914Z,10.10
2019-02-05T01:25:55.912Z,10.80
2019-02-05T01:28:27.611Z,10.23
2019-02-05T01:30:59.279Z,11.63
2019-02-05T01:33:30.968Z,11.90
2019-02-05T01:36:02.646Z,10.20
2019-02-05T01:38:34.407Z,11.50
2019-02-05T01:41:06.146Z,11.47
2019-02-05T01:43:37.827Z,10.93
2019-02-05T01:46:09.960Z,11.63
2019-02-05T01:48:42.024Z,12.50
2019-02-05T01:51:13.761Z,12.40
2019-02-05T01:53:45.597Z,12.53
2019-02-05T01:56:17.454Z,12.40
2019-02-05T01:58:49.921Z,11.63
2019-02-05T02:01:21.628Z,12.67
2019-02-05T02:03:53.296Z,12.70
2019-02-05T02:06:24.971Z,12.90
2019-02-05T02:08:56.682Z,12.47
2019-02-05T02:11:28.726Z,13.57
2019-02-05T02:14:00.426Z,13.27
2019-02-05T02:16:35.017Z,13.83
2019-02-05T02:19:06.729Z,12.90
2019-02-05T02:21:38.398Z,12.90
2019-02-05T02:24:10.455Z,13.77
2019-02-05T02:26:51.768Z,12.27
2019-02-05T02:29:15.516Z,13.27
2019-02-05T02:31:47.182Z,12.97
2019-02-05T02:34:18.870Z,13.97
2019-02-05T02:36:50.540Z,14.00
2019-02-05T02:39:22.209Z,13.97
2019-02-05T02:41:54.688Z,12.77
2019-02-05T02:44:26.414Z,12.70
2019-02-05T02:46:58.116Z,13.77
2019-02-05T02:49:29.816Z,14.13
2019-02-05T02:52:01.484Z,13.77
2019-02-05T02:54:33.218Z,13.53
2019-02-05T02:57:05.171Z,13.73
2019-02-05T02:59:37.259Z,13.73
2019-02-05T03:02:08.952Z,14.43
2019-02-05T03:04:40.633Z,14.00
2019-02-05T03:07:12.644Z,13.37
2019-02-05T03:09:44.321Z,14.23
2019-02-05T03:12:16.002Z,14.43
2019-02-05T03:14:47.871Z,14.60
2019-02-05T03:17:19.550Z,14.77
2019-02-05T03:19:51.328Z,15.77
2019-02-05T03:22:23.013Z,14.50
2019-02-05T03:24:54.699Z,14.87
2019-02-05T03:27:26.379Z,14.30
2019-02-05T03:29:59.189Z,14.83
2019-02-05T03:32:31.076Z,15.93
2019-02-05T03:35:02.843Z,15.30
2019-02-05T03:37:34.503Z,16.13
2019-02-05T03:40:31.652Z,15.40
2019-02-05T03:43:03.325Z,16.00
2019-02-05T03:45:35.018Z,16.20
2019-02-05T03:48:07.259Z,15.73
2019-02-05T03:50:46.577Z,15.87
2019-02-05T03:53:50.321Z,16.30
2019-02-05T03:56:54.157Z,17.03
2019-02-05T03:59:53.289Z,16.40
2019-02-05T04:02:53.823Z,18.27
2019-02-05T04:05:50.227Z,16.43
2019-02-05T04:08:47.235Z,17.27
2019-02-05T04:11:43.083Z,16.07
2019-02-05T04:14:22.474Z,16.80
2019-02-05T04:17:10.361Z,17.03
2019-02-05T04:20:09.793Z,17.13
2019-02-05T04:22:58.547Z,18.67
2019-02-05T04:25:53.074Z,17.83
2019-02-05T04:28:48.954Z,17.70
2019-02-05T04:31:33.920Z,17.27
2019-02-05T04:34:25.748Z,17.93
2019-02-05T04:37:26.333Z,17.80
2019-02-05T04:40:23.643Z,17.87
2019-02-05T04:43:18.289Z,18.07
2019-02-05T04:46:00.390Z,17.93
2019-02-05T04:48:45.677Z,17.37
2019-02-05T04:51:34.756Z,17.77
2019-02-05T04:54:23.163Z,18.60
2019-02-05T04:57:18.035Z,18.57
2019-02-05T05:00:41.369Z,17.40
2019-02-05T05:03:39.520Z,17.97
2019-02-05T05:06:46.224Z,18.43
2019-02-05T05:09:31.732Z,20.20
2019-02-05T05:12:03.818Z,18.73
2019-02-05T05:14:35.756Z,19.03
2019-02-05T05:17:07.815Z,19.00
2019-02-05T05:19:39.854Z,20.10
2019-02-05T05:22:11.623Z,19.83
2019-02-05T05:24:43.298Z,20.17
2019-02-05T05:27:16.589Z,19.97
2019-02-05T05:29:48.989Z,20.23
2019-02-05T05:32:21.128Z,21.47
2019-02-05T05:34:53.273Z,19.87
2019-02-05T05:37:24.956Z,20.40
2019-02-05T05:39:56.632Z,20.77
2019-02-05T05:42:29.986Z,21.43
2019-02-05T05:45:01.926Z,21.83
2019-02-05T05:47:33.972Z,21.97
2019-02-05T05:50:11.256Z,22.50
2019-02-05T05:52:43.209Z,22.83
2019-02-05T05:55:15.717Z,21.87
2019-02-05T05:57:47.544Z,22.57
2019-02-05T06:00:20.318Z,21.97
2019-02-05T06:02:52.010Z,21.97
2019-02-05T06:05:23.675Z,23.17
2019-02-05T06:07:55.929Z,21.20
2019-02-05T06:10:27.627Z,22.80
2019-02-05T06:12:59.329Z,22.57
2019-02-05T06:15:30.991Z,21.30
2019-02-05T06:18:02.670Z,22.37
2019-02-05T06:20:36.061Z,23.07
2019-02-05T06:23:07.762Z,21.83
2019-02-05T06:25:39.437Z,22.43
2019-02-05T06:28:11.112Z,23.63
2019-02-05T06:30:42.786Z,23.13
2019-02-05T06:33:14.528Z,23.83
2019-02-05T06:35:46.270Z,23.53
2019-02-05T06:38:17.944Z,23.53
2019-02-05T06:40:49.677Z,25.20
2019-02-05T06:43:21.340Z,29.27
2019-02-05T06:45:53.040Z,22.77
2019-02-05T06:48:24.700Z,24.33
2019-02-05T06:50:56.973Z,23.23
2019-02-05T06:53:28.854Z,24.00
2019-02-05T06:56:00.498Z,23.40
2019-02-05T06:58:32.434Z,22.87
2019-02-05T07:01:04.183Z,23.20
2019-02-05T07:03:35.889Z,23.03
2019-02-05T07:06:07.592Z,22.37
2019-02-05T07:08:42.355Z,23.07
2019-02-05T07:11:12.669Z,23.00
2019-02-05T07:13:44.753Z,22.67
2019-02-05T07:16:16.424Z,22.93
2019-02-05T07:18:48.129Z,22.60
2019-02-05T07:21:20.100Z,24.03
2019-02-05T07:23:51.763Z,22.97
2019-02-05T07:26:23.943Z,23.57
2019-02-05T07:28:58.883Z,21.63
2019-02-05T07:31:29.012Z,22.57
2019-02-05T07:34:00.724Z,21.47
2019-02-05T07:36:32.439Z,22.20
2019-02-05T07:39:06.839Z,23.10
2019-02-05T07:41:38.907Z,23.00
2019-02-05T07:44:10.703Z,23.03
2019-02-05T07:46:42.464Z,21.73
2019-02-05T07:49:14.174Z,23.80
2019-02-05T07:51:45.839Z,24.07
2019-02-05T07:54:18.334Z,22.40
2019-02-05T07:56:50.016Z,24.97
2019-02-05T07:59:21.709Z,22.80
2019-02-05T08:01:53.719Z,24.40
2019-02-05T08:04:25.960Z,23.17
2019-02-05T08:06:57.679Z,24.57
2019-02-05T08:09:29.350Z,23.80
2019-02-05T08:12:01.065Z,24.00
2019-02-05T08:14:33.133Z,23.00
2019-02-05T08:17:04.861Z,24.37
2019-02-05T08:19:36.957Z,24.57
2019-02-05T08:22:09.666Z,24.93
2019-02-05T08:24:41.796Z,24.97
2019-02-05T08:27:13.500Z,25.87
2019-02-05T08:29:46.887Z,25.30
2019-02-05T08:32:18.552Z,23.60
2019-02-05T08:34:50.274Z,24.43
2019-02-05T08:37:23.763Z,23.97
2019-02-05T08:39:55.499Z,24.50
2019-02-05T08:42:27.478Z,23.27
2019-02-05T08:44:59.525Z,23.53
2019-02-05T08:47:31.950Z,22.50
2019-02-05T08:50:07.920Z,23.67
2019-02-05T08:52:39.622Z,23.90
2019-02-05T08:55:18.026Z,22.30
2019-02-05T08:57:53.806Z,21.43
2019-02-05T09:00:34.244Z,23.90
2019-02-05T09:03:07.163Z,24.23
2019-02-05T09:05:38.832Z,23.30
2019-02-05T09:08:10.879Z,20.57
2019-02-05T09:10:43.297Z,22.77
2019-02-05T09:13:15.472Z,21.67
2019-02-05T09:15:47.197Z,22.90
2019-02-05T09:18:18.894Z,21.90
2019-02-05T09:20:50.587Z,23.17
2019-02-05T09:23:22.317Z,23.67
2019-02-05T09:25:53.967Z,23.00
2019-02-05T09:28:25.750Z,23.37
2019-02-05T09:30:57.654Z,21.87
2019-02-05T09:33:29.664Z,23.67
2019-02-05T09:36:01.523Z,22.97
2019-02-05T09:38:33.586Z,22.53
2019-02-05T09:41:05.305Z,20.53
2019-02-05T09:43:37.461Z,23.20
2019-02-05T09:46:09.129Z,21.07
2019-02-05T09:48:42.669Z,20.90
2019-02-05T09:51:14.356Z,20.93
2019-02-05T09:53:46.543Z,22.33
2019-02-05T09:56:18.265Z,21.47
2019-02-05T09:58:49.971Z,20.87
2019-02-05T10:01:21.640Z,22.00
2019-02-05T10:03:53.407Z,19.60
2019-02-05T10:06:25.297Z,20.60
2019-02-05T10:08:56.988Z,20.17
2019-02-05T10:11:28.716Z,20.57
2019-02-05T10:14:00.450Z,18.73
2019-02-05T10:16:32.199Z,19.10
2019-02-05T10:19:03.921Z,18.13
2019-02-05T10:21:36.094Z,19.37
2019-02-05T10:24:07.806Z,19.37
2019-02-05T10:26:40.238Z,17.90
2019-02-05T10:29:12.045Z,18.43
2019-02-05T10:31:43.675Z,18.53
2019-02-05T10:34:15.708Z,17.40
2019-02-05T10:36:47.470Z,17.70
2019-02-05T10:39:19.250Z,17.67
2019-02-05T10:41:50.952Z,16.37
2019-02-05T10:44:22.634Z,17.93
2019-02-05T10:46:54.871Z,17.17
2019-02-05T10:49:26.750Z,17.27
2019-02-05T10:51:58.475Z,16.43
2019-02-05T10:54:30.186Z,16.30
2019-02-05T10:57:02.258Z,16.70
2019-02-05T10:59:34.233Z,16.10
2019-02-05T11:02:06.215Z,15.97
2019-02-05T11:04:37.919Z,16.03
2019-02-05T11:07:09.619Z,14.30
2019-02-05T11:09:41.394Z,14.17
2019-02-05T11:12:13.104Z,15.17
2019-02-05T11:14:45.273Z,16.80
2019-02-05T11:17:16.964Z,15.67
2019-02-05T11:19:48.624Z,15.17
2019-02-05T11:22:20.341Z,15.60
2019-02-05T11:24:52.111Z,14.10
2019-02-05T11:27:24.055Z,15.30
2019-02-05T11:29:55.735Z,12.73
2019-02-05T11:32:28.128Z,14.87
2019-02-05T11:35:00.345Z,13.40
2019-02-05T11:37:32.014Z,14.37
2019-02-05T11:40:04.307Z,14.73
2019-02-05T11:42:35.957Z,15.90
2019-02-05T11:45:12.786Z,14.83
2019-02-05T11:47:44.665Z,14.87
2019-02-05T11:50:18.004Z,14.60
2019-02-05T11:52:49.775Z,14.50
2019-02-05T11:55:25.811Z,14.27
2019-02-05T11:57:57.452Z,15.03
2019-02-05T12:00:32.597Z,14.10
2019-02-05T12:03:04.374Z,13.33
2019-02-05T12:10:42.025Z,14.10
2019-02-05T12:13:13.740Z,14.00
2019-02-05T12:15:45.989Z,13.23
2019-02-05T12:18:17.707Z,14.30
2019-02-05T12:20:49.832Z,14.03
2019-02-05T12:23:21.792Z,13.67
2019-02-05T12:25:53.730Z,13.00
2019-02-05T12:28:25.401Z,13.57
2019-02-05T12:30:57.052Z,13.60
2019-02-05T12:33:29.124Z,13.00
2019-02-05T12:36:00.817Z,13.37
2019-02-05T12:38:32.736Z,14.50
2019-02-05T12:41:04.553Z,12.87
2019-02-05T12:43:36.450Z,12.20
2019-02-05T12:46:08.267Z,13.87
2019-02-05T12:48:40.839Z,12.57
2019-02-05T12:51:12.555Z,12.47
2019-02-05T12:53:44.410Z,11.93
2019-02-05T12:56:16.099Z,12.67
2019-02-05T12:58:47.780Z,11.00
2019-02-05T13:01:19.471Z,11.53
2019-02-05T13:03:51.146Z,11.20
2019-02-05T13:06:22.849Z,11.80
2019-02-05T13:08:54.520Z,10.83
2019-02-05T13:11:26.258Z,10.80
2019-02-05T13:13:57.903Z,11.13
2019-02-05T13:16:29.589Z,9.87
2019-02-05T13:19:01.306Z,11.70
2019-02-05T13:21:33.263Z,10.93
2019-02-05T13:24:04.957Z,10.87
2019-02-05T13:26:37.032Z,11.07
2019-02-05T13:29:08.661Z,11.67
2019-02-05T13:31:40.428Z,11.63
2019-02-05T13:34:12.220Z,11.77
2019-02-05T13:36:44.240Z,12.43
2019-02-05T13:39:15.941Z,12.07
2019-02-05T13:41:47.650Z,13.20
2019-02-05T13:44:19.672Z,11.13
2019-02-05T13:46:51.308Z,13.13
2019-02-05T13:49:23.431Z,10.50
2019-02-05T13:51:55.427Z,11.97
2019-02-05T13:54:27.063Z,12.13
2019-02-05T13:56:58.822Z,11.33
2019-02-05T13:59:30.488Z,10.33
2019-02-05T14:02:02.796Z,10.60
2019-02-05T14:04:35.023Z,10.67
2019-02-05T14:07:06.727Z,10.63
2019-02-05T14:09:38.409Z,9.73
2019-02-05T14:12:10.094Z,10.50
2019-02-05T14:14:42.108Z,10.73
2019-02-05T14:17:13.815Z,9.03
2019-02-05T14:19:45.546Z,9.30
2019-02-05T14:22:17.274Z,8.30
2019-02-05T14:24:48.908Z,9.60
2019-02-05T14:27:21.182Z,9.17
2019-02-05T14:29:52.853Z,9.30
2019-02-05T14:32:24.576Z,10.70
2019-02-05T14:34:56.257Z,9.87
2019-02-05T14:37:27.941Z,9.83
2019-02-05T14:40:00.389Z,9.07
2019-02-05T14:42:32.064Z,9.40
2019-02-05T14:45:04.630Z,8.87
2019-02-05T14:47:36.366Z,8.60
2019-02-05T14:50:22.518Z,9.57
2019-02-05T14:53:09.767Z,9.53
2019-02-05T14:55:41.503Z,9.17
2019-02-05T14:58:13.754Z,9.60
2019-02-05T15:00:45.436Z,10.03
2019-02-05T15:03:17.426Z,9.73
2019-02-05T15:05:49.131Z,10.13
2019-02-05T15:08:20.965Z,10.00
2019-02-05T15:10:52.649Z,10.67
2019-02-05T15:13:24.286Z,10.50
2019-02-05T15:15:55.978Z,10.70
2019-02-05T15:18:27.667Z,10.77
2019-02-05T15:20:59.386Z,11.33
2019-02-05T15:23:31.420Z,11.63
2019-02-05T15:26:03.160Z,10.03
2019-02-05T15:28:35.241Z,10.47
2019-02-05T15:31:06.982Z,11.23
2019-02-05T15:33:46.180Z,9.40
2019-02-05T15:36:19.491Z,9.40
2019-02-05T15:38:51.632Z,10.40
2019-02-05T15:41:23.313Z,10.23
2019-02-05T15:43:55.034Z,9.47
2019-02-05T15:46:27.363Z,9.47
2019-02-05T15:48:59.010Z,10.40
2019-02-05T15:51:30.668Z,9.93
2019-02-05T15:54:02.638Z,9.33
2019-02-05T15:56:34.393Z,9.80
2019-02-05T15:59:06.148Z,8.97
2019-02-05T16:01:38.013Z,9.23
2019-02-05T16:04:10.500Z,9.50
2019-02-05T16:06:44.192Z,10.10
2019-02-05T16:09:16.169Z,9.40
2019-02-05T16:11:47.857Z,9.30
2019-02-05T16:14:19.973Z,8.20
2019-02-05T16:16:51.947Z,9.17
2019-02-05T16:19:24.139Z,8.90
2019-02-05T16:21:55.791Z,8.93
2019-02-05T16:24:28.051Z,7.80
2019-02-05T16:26:59.684Z,8.60
2019-02-05T16:29:31.430Z,9.63
2019-02-05T16:32:03.147Z,8.63
2019-02-05T16:34:34.783Z,7.97
2019-02-05T16:37:06.460Z,8.50
2019-02-05T16:39:38.138Z,8.23
2019-02-05T16:42:10.175Z,7.73
2019-02-05T16:44:42.118Z,8.60
2019-02-05T16:47:13.955Z,8.60
2019-02-05T16:49:46.200Z,7.67
2019-02-05T16:52:17.890Z,8.90
2019-02-05T16:54:50.099Z,8.60
2019-02-05T16:57:21.799Z,9.10
2019-02-05T16:59:53.481Z,8.20
2019-02-05T17:02:28.787Z,7.90
2019-02-05T17:04:59.402Z,8.60
2019-02-05T17:07:31.353Z,9.93
2019-02-05T17:10:03.257Z,8.93
2019-02-05T17:12:34.942Z,9.40
2019-02-05T17:15:14.226Z,9.53
2019-02-05T17:17:45.970Z,9.40
2019-02-05T17:20:32.487Z,9.27
2019-02-05T17:23:04.392Z,8.53
2019-02-05T17:25:36.394Z,9.40
2019-02-05T17:28:08.252Z,8.87
2019-02-05T17:30:41.473Z,10.20
2019-02-05T17:33:13.142Z,9.17
2019-02-05T17:35:44.955Z,9.53
2019-02-05T17:38:16.660Z,8.97
2019-02-05T17:40:48.301Z,9.93
2019-02-05T17:43:19.984Z,9.30
2019-02-05T17:45:51.659Z,10.97
2019-02-05T17:48:23.303Z,11.20
2019-02-05T17:50:55.026Z,10.10
2019-02-05T17:53:26.791Z,9.97
2019-02-05T17:55:58.509Z,9.37
2019-02-05T17:58:30.187Z,10.77
2019-02-05T18:01:03.470Z,9.00
2019-02-05T18:03:35.263Z,10.87
2019-02-05T18:06:06.979Z,9.63
2019-02-05T18:08:38.647Z,10.43
2019-02-05T18:11:10.286Z,9.73
2019-02-05T18:13:42.683Z,10.67
2019-02-05T18:16:14.675Z,10.80
2019-02-05T18:18:46.717Z,10.80
2019-02-05T18:21:18.390Z,10.00
2019-02-05T18:23:50.029Z,9.73
2019-02-05T18:26:22.157Z,9.77
2019-02-05T18:28:53.877Z,10.00
2019-02-05T18:31:25.545Z,10.90
2019-02-05T18:33:57.189Z,10.20
2019-02-05T18:36:28.839Z,10.17
2019-02-05T18:39:00.925Z,9.07
2019-02-05T18:41:32.832Z,9.80
2019-02-05T18:44:04.899Z,9.53
2019-02-05T18:46:36.580Z,10.00
2019-02-05T18:49:08.229Z,10.80
2019-02-05T18:51:40.549Z,9.50
2019-02-05T18:54:12.206Z,11.17
2019-02-05T18:56:44.060Z,9.07
2019-02-05T18:59:16.101Z,9.77
2019-02-05T19:01:47.785Z,10.03
2019-02-05T19:04:19.706Z,9.23
2019-02-05T19:06:51.359Z,9.50
2019-02-05T19:09:23.048Z,9.47
2019-02-05T19:11:54.680Z,8.70
2019-02-05T19:14:26.437Z,8.57
2019-02-05T19:16:58.629Z,10.23
2019-02-05T19:19:30.360Z,9.17
2019-02-05T19:22:02.314Z,8.47
2019-02-05T19:24:35.599Z,10.20
2019-02-05T19:27:07.715Z,9.40
2019-02-05T19:29:39.839Z,9.80
2019-02-05T19:32:12.952Z,8.53
2019-02-05T19:34:44.591Z,8.90
2019-02-05T19:37:16.264Z,8.17
2019-02-05T19:39:47.899Z,8.50
2019-02-05T19:42:19.744Z,8.87
2019-02-05T19:44:53.008Z,8.53
2019-02-05T19:47:24.980Z,9.20
2019-02-05T19:49:56.732Z,9.40
2019-02-05T19:52:28.875Z,8.83
2019-02-05T19:55:01.059Z,8.57
2019-02-05T19:57:32.679Z,8.40
2019-02-05T20:00:12.417Z,8.47
2019-02-05T20:02:44.469Z,8.40
2019-02-05T20:05:18.320Z,8.47
2019-02-05T20:07:50.812Z,8.77
2019-02-05T20:10:22.493Z,8.90
2019-02-05T20:12:54.149Z,8.67
2019-02-05T20:15:26.138Z,8.80
2019-02-05T20:17:57.785Z,8.40
2019-02-05T20:20:31.626Z,8.23
2019-02-05T20:23:03.994Z,8.90
2019-02-05T20:25:35.647Z,8.47
2019-02-05T20:28:08.189Z,9.67
2019-02-05T20:30:39.876Z,10.73
2019-02-05T20:33:11.579Z,9.17
2019-02-05T20:35:43.228Z,8.93
2019-02-05T20:38:14.900Z,8.77
2019-02-05T20:40:46.622Z,8.20
2019-02-05T20:43:18.420Z,9.37
2019-02-05T20:45:50.132Z,9.43
2019-02-05T20:48:21.775Z,9.93
2019-02-05T20:50:53.434Z,9.03
2019-02-05T20:53:25.507Z,9.30
2019-02-05T20:55:57.399Z,10.07
2019-02-05T20:58:29.145Z,10.83
2019-02-05T21:01:00.826Z,10.27
2019-02-05T21:03:32.528Z,9.60
2019-02-05T21:06:04.212Z,10.43
2019-02-05T21:08:35.960Z,9.37
2019-02-05T21:11:08.127Z,10.13
2019-02-05T21:13:39.847Z,9.13
2019-02-05T21:16:11.601Z,9.20
2019-02-05T21:18:43.243Z,8.77
2019-02-05T21:21:14.926Z,9.13
2019-02-05T21:23:46.914Z,8.87
2019-02-05T21:26:18.675Z,9.27
2019-02-05T21:28:50.625Z,9.33
2019-02-05T21:31:22.272Z,8.63
2019-02-05T21:33:53.958Z,9.00
2019-02-05T21:36:25.606Z,9.37
2019-02-05T21:38:57.239Z,8.80
2019-02-05T21:41:29.303Z,8.63
2019-02-05T21:44:00.940Z,8.37
2019-02-05T21:46:32.795Z,8.23
2019-02-05T21:49:04.847Z,8.93
2019-02-05T21:51:41.591Z,8.33
2019-02-05T21:54:09.943Z,7.77
2019-02-05T21:56:41.611Z,8.40
2019-02-05T21:59:13.316Z,10.10
2019-02-05T22:01:45.079Z,10.53
2019-02-05T22:04:26.629Z,9.97
2019-02-05T22:06:50.370Z,10.03
2019-02-05T22:09:22.508Z,10.53
2019-02-05T22:11:54.238Z,10.27
2019-02-05T22:14:26.190Z,10.43
2019-02-05T22:16:57.882Z,9.93
2019-02-05T22:19:30.071Z,9.30
2019-02-05T22:22:01.708Z,10.37
2019-02-05T22:24:33.444Z,10.30
2019-02-05T22:27:05.976Z,10.90
2019-02-05T22:29:37.628Z,10.23
2019-02-05T22:32:09.314Z,11.70
2019-02-05T22:34:41.276Z,11.10
2019-02-05T22:37:13.025Z,11.83
2019-02-05T22:39:45.088Z,12.23
2019-02-05T22:42:17.091Z,11.93
2019-02-05T22:44:48.912Z,12.40
2019-02-05T22:47:20.598Z,11.67
2019-02-05T22:49:52.293Z,11.17
2019-02-05T22:52:25.930Z,13.27
2019-02-05T22:54:57.350Z,11.70
2019-02-05T22:57:31.678Z,12.67
2019-02-05T23:00:02.434Z,12.50
2019-02-05T23:02:34.157Z,12.90
2019-02-05T23:05:19.058Z,14.33
2019-02-05T23:07:51.170Z,13.30
2019-02-05T23:10:27.750Z,16.13
2019-02-05T23:12:59.473Z,14.77
2019-02-05T23:15:31.188Z,14.07
2019-02-05T23:18:02.967Z,15.53
2019-02-05T23:20:34.977Z,17.33
2019-02-05T23:23:06.627Z,16.23
2019-02-05T23:25:38.282Z,17.23
2019-02-05T23:28:09.947Z,17.83
2019-02-05T23:30:41.891Z,18.67
2019-02-05T23:33:13.927Z,20.17
2019-02-05T23:35:45.919Z,20.83
2019-02-05T23:38:17.584Z,22.73
2019-02-05T23:40:49.333Z,24.37
2019-02-05T23:43:20.965Z,23.80
2019-02-05T23:46:01.369Z,24.50
2019-02-05T23:48:26.259Z,25.63
2019-02-05T23:50:57.917Z,26.20
2019-02-05T23:53:29.636Z,29.27
2019-02-05T23:56:01.324Z,28.87
2019-02-05T23:58:33.649Z,29.10
